Time;durP1;ratioP1;P1;durP2;ratioP2;P2;SDS_P1;SDS_P2;PMS_P1;PMS_P2;Temp;Humidity;BMP_temperature;BMP_pressure;BME280_temperature;BME280_humidity;BME280_pressure;Samples;Min_cycle;Max_cycle;Signal;HPM_P1;HPM_P2
2023/07/09 00:00:48;;;;;;;4.63;3.92;;;;;;;;;;5074613;28;20077;-72
2023/07/09 00:03:14;;;;;;;5.22;4.15;;;;;;;;;;5073628;28;20358;-72
2023/07/09 00:05:39;;;;;;;4.00;3.70;;;;;;;;;;5073762;28;20054;-71
2023/07/09 00:08:05;;;;;;;3.17;2.97;;;;;;;;;;5074535;28;20032;-72
2023/07/09 00:10:30;;;;;;;3.75;3.45;;;;;;;;;;5074801;28;20024;-71
2023/07/09 00:12:56;;;;;;;3.55;3.35;;;;;;;;;;5074568;28;20373;-71
2023/07/09 00:15:21;;;;;;;5.30;3.53;;;;;;;;;;5074011;28;20049;-71
2023/07/09 00:17:46;;;;;;;6.95;4.50;;;;;;;;;;5074626;28;20445;-71
2023/07/09 00:20:17;;;;;;;4.80;4.38;;;;;;;;;;5074051;28;20029;-71
2023/07/09 00:22:47;;;;;;;4.43;4.03;;;;;;;;;;5074732;28;20342;-71
2023/07/09 00:25:16;;;;;;;5.28;3.67;;;;;;;;;;5073931;28;20036;-71
2023/07/09 00:27:44;;;;;;;4.03;3.72;;;;;;;;;;5074521;28;20103;-72
2023/07/09 00:30:15;;;;;;;5.85;4.10;;;;;;;;;;5056047;28;20024;-72
2023/07/09 00:32:43;;;;;;;4.40;4.10;;;;;;;;;;5072742;28;20060;-72
2023/07/09 00:35:09;;;;;;;3.78;3.47;;;;;;;;;;5072915;28;20028;-72
2023/07/09 00:37:34;;;;;;;4.47;4.10;;;;;;;;;;5072964;28;20097;-72
2023/07/09 00:40:00;;;;;;;4.45;4.15;;;;;;;;;;5072539;28;20032;-72
2023/07/09 00:42:25;;;;;;;4.25;3.55;;;;;;;;;;5072619;28;20463;-73
2023/07/09 00:44:51;;;;;;;4.85;3.63;;;;;;;;;;5073828;28;20025;-73
2023/07/09 00:47:41;;;;;;;4.07;3.78;;;;;;;;;;5072888;28;20125;-73
2023/07/09 00:50:27;;;;;;;4.40;3.83;;;;;;;;;;5074553;28;20115;-73
2023/07/09 00:53:07;;;;;;;4.15;3.70;;;;;;;;;;5073259;28;20025;-73
2023/07/09 00:55:37;;;;;;;4.35;3.38;;;;;;;;;;5072703;28;20020;-71
2023/07/09 01:00:47;;;;;;;3.95;3.65;;;;;;;;;;5071221;28;20090;-71
2023/07/09 01:03:33;;;;;;;3.88;3.50;;;;;;;;;;5073769;28;20112;-72
2023/07/09 01:05:59;;;;;;;3.47;3.25;;;;;;;;;;5072601;28;20021;-77
2023/07/09 01:08:30;;;;;;;4.07;3.67;;;;;;;;;;5073872;28;20077;-76
2023/07/09 01:10:55;;;;;;;3.50;3.25;;;;;;;;;;5073947;28;20039;-77
2023/07/09 01:13:26;;;;;;;3.53;3.22;;;;;;;;;;5072673;28;20101;-76
2023/07/09 01:15:51;;;;;;;4.20;3.53;;;;;;;;;;5073984;28;20044;-75
2023/07/09 01:18:17;;;;;;;4.28;3.75;;;;;;;;;;5072628;28;20028;-76
2023/07/09 01:20:43;;;;;;;5.07;4.00;;;;;;;;;;5072520;28;20028;-76
2023/07/09 01:23:09;;;;;;;3.83;3.47;;;;;;;;;;5072148;28;20042;-75
2023/07/09 01:25:45;;;;;;;4.10;3.80;;;;;;;;;;5072140;28;20419;-76
2023/07/09 01:28:10;;;;;;;3.97;3.65;;;;;;;;;;5055853;28;20036;-76
2023/07/09 01:30:37;;;;;;;4.10;3.80;;;;;;;;;;5074020;28;20074;-75
2023/07/09 01:33:03;;;;;;;5.15;3.95;;;;;;;;;;5073673;28;20028;-75
2023/07/09 01:35:30;;;;;;;4.03;3.58;;;;;;;;;;5073582;28;20025;-76
2023/07/09 01:37:55;;;;;;;3.90;3.60;;;;;;;;;;5072337;28;20128;-76
2023/07/09 01:40:23;;;;;;;3.83;3.53;;;;;;;;;;5071888;28;20063;-76
2023/07/09 01:42:49;;;;;;;3.80;3.10;;;;;;;;;;5071953;28;20033;-77
2023/07/09 01:45:15;;;;;;;3.92;3.63;;;;;;;;;;5071846;28;20081;-76
2023/07/09 01:47:43;;;;;;;4.20;3.55;;;;;;;;;;5073208;28;20044;-76
2023/07/09 01:50:09;;;;;;;3.95;3.65;;;;;;;;;;5072172;28;20028;-76
2023/07/09 01:52:35;;;;;;;3.90;3.33;;;;;;;;;;5073674;28;20033;-76
2023/07/09 01:55:02;;;;;;;3.42;3.22;;;;;;;;;;5075916;28;20016;-76
2023/07/09 01:57:35;;;;;;;3.50;3.20;;;;;;;;;;5077224;28;20027;-76
2023/07/09 02:00:05;;;;;;;3.85;3.50;;;;;;;;;;5061928;28;20408;-75
2023/07/09 02:02:48;;;;;;;3.33;3.03;;;;;;;;;;5057465;28;20471;-72
2023/07/09 02:05:15;;;;;;;3.75;3.30;;;;;;;;;;5038947;28;20527;-72
2023/07/09 02:07:40;;;;;;;3.83;3.40;;;;;;;;;;5039245;28;20082;-72
2023/07/09 02:10:06;;;;;;;4.00;3.40;;;;;;;;;;5056452;28;20040;-71
2023/07/09 02:12:31;;;;;;;3.80;3.33;;;;;;;;;;5057021;28;20045;-71
2023/07/09 02:14:57;;;;;;;3.67;3.42;;;;;;;;;;5055886;28;20017;-72
2023/07/09 02:17:23;;;;;;;3.78;3.50;;;;;;;;;;5055961;28;20059;-72
2023/07/09 02:19:48;;;;;;;4.03;3.72;;;;;;;;;;5055885;28;20052;-73
2023/07/09 02:22:14;;;;;;;4.13;3.83;;;;;;;;;;5055670;28;20029;-72
2023/07/09 02:24:39;;;;;;;4.47;4.07;;;;;;;;;;5055131;28;20079;-72
2023/07/09 02:27:06;;;;;;;4.20;3.35;;;;;;;;;;5056740;28;20033;-72
2023/07/09 02:29:31;;;;;;;4.68;3.55;;;;;;;;;;5056559;28;20456;-72
2023/07/09 02:31:58;;;;;;;4.13;3.67;;;;;;;;;;5056505;28;20021;-72
2023/07/09 02:34:27;;;;;;;4.80;3.30;;;;;;;;;;5056419;28;20029;-72
2023/07/09 02:36:53;;;;;;;3.75;3.45;;;;;;;;;;5056190;28;20075;-72
2023/07/09 02:39:20;;;;;;;4.47;3.85;;;;;;;;;;5056551;28;20021;-72
2023/07/09 02:41:45;;;;;;;4.28;3.65;;;;;;;;;;5056380;28;20033;-72
2023/07/09 02:44:11;;;;;;;3.75;3.47;;;;;;;;;;5054794;28;20013;-72
2023/07/09 02:46:36;;;;;;;3.78;3.40;;;;;;;;;;5056236;28;20056;-72
2023/07/09 02:49:05;;;;;;;4.85;2.95;;;;;;;;;;5054818;28;20112;-72
2023/07/09 02:51:32;;;;;;;5.45;3.45;;;;;;;;;;5056390;28;20021;-72
2023/07/09 02:53:59;;;;;;;3.85;3.55;;;;;;;;;;5054980;28;20376;-72
2023/07/09 02:56:25;;;;;;;4.20;3.78;;;;;;;;;;5054873;28;20056;-72
2023/07/09 02:58:51;;;;;;;3.60;3.30;;;;;;;;;;5064259;28;20072;-71
2023/07/09 03:01:16;;;;;;;3.47;3.28;;;;;;;;;;5078426;28;20035;-71
2023/07/09 03:03:42;;;;;;;3.88;3.58;;;;;;;;;;5061550;28;20036;-72
2023/07/09 03:06:08;;;;;;;3.97;3.58;;;;;;;;;;5096334;28;20020;-72
2023/07/09 03:08:37;;;;;;;5.43;3.70;;;;;;;;;;5095903;28;20016;-72
2023/07/09 03:11:09;;;;;;;4.38;3.95;;;;;;;;;;5077550;28;20064;-71
2023/07/09 03:13:35;;;;;;;3.78;3.47;;;;;;;;;;5077822;28;20063;-71
2023/07/09 03:16:00;;;;;;;3.25;3.05;;;;;;;;;;5077934;28;20428;-71
2023/07/09 03:18:26;;;;;;;3.33;3.10;;;;;;;;;;5095955;28;20368;-72
2023/07/09 03:20:51;;;;;;;3.97;3.03;;;;;;;;;;5095501;28;20141;-71
2023/07/09 03:23:16;;;;;;;3.38;3.17;;;;;;;;;;5096054;28;20375;-72
2023/07/09 03:25:43;;;;;;;3.38;3.17;;;;;;;;;;5095352;28;20396;-71
2023/07/09 03:28:08;;;;;;;3.35;3.10;;;;;;;;;;5077525;28;20028;-72
2023/07/09 03:30:34;;;;;;;3.47;3.22;;;;;;;;;;5095506;28;20036;-71
2023/07/09 03:33:00;;;;;;;3.40;3.10;;;;;;;;;;5095494;28;20110;-71
2023/07/09 03:35:25;;;;;;;3.65;3.35;;;;;;;;;;5077331;28;20115;-71
2023/07/09 03:37:51;;;;;;;4.38;3.40;;;;;;;;;;5095594;28;20101;-72
2023/07/09 03:40:22;;;;;;;3.35;2.88;;;;;;;;;;5095594;28;20482;-71
2023/07/09 03:42:49;;;;;;;3.90;3.03;;;;;;;;;;5095242;28;20107;-71
2023/07/09 03:45:14;;;;;;;3.28;3.03;;;;;;;;;;5095496;28;20023;-71
2023/07/09 03:47:40;;;;;;;4.90;3.38;;;;;;;;;;5095377;28;20040;-71
2023/07/09 03:50:09;;;;;;;3.42;3.15;;;;;;;;;;5076929;28;20040;-71
2023/07/09 03:52:35;;;;;;;4.18;3.22;;;;;;;;;;5077053;28;20028;-71
2023/07/09 03:57:46;;;;;;;3.38;3.08;;;;;;;;;;5070672;23;20044;-73
2023/07/09 04:00:12;;;;;;;3.92;3.50;;;;;;;;;;5094661;28;20536;-71
2023/07/09 04:02:45;;;;;;;3.67;3.38;;;;;;;;;;5095212;28;20089;-71
2023/07/09 04:05:11;;;;;;;5.50;3.63;;;;;;;;;;5076469;28;20047;-72
2023/07/09 04:07:37;;;;;;;3.88;3.50;;;;;;;;;;5076022;28;20028;-72
2023/07/09 04:10:02;;;;;;;4.00;3.50;;;;;;;;;;5060153;28;20035;-72
2023/07/09 04:12:28;;;;;;;4.72;3.67;;;;;;;;;;5094841;28;20024;-72
2023/07/09 04:14:53;;;;;;;4.25;3.50;;;;;;;;;;5075816;28;20020;-72
2023/07/09 04:17:18;;;;;;;3.55;3.35;;;;;;;;;;5076270;28;20459;-72
2023/07/09 04:19:44;;;;;;;3.47;3.17;;;;;;;;;;5094530;28;20036;-72
2023/07/09 04:22:10;;;;;;;3.53;3.28;;;;;;;;;;5094668;28;20027;-72
2023/07/09 04:24:35;;;;;;;3.90;3.60;;;;;;;;;;5094255;28;20525;-72
2023/07/09 04:27:02;;;;;;;3.70;3.10;;;;;;;;;;5094547;28;20028;-72
2023/07/09 04:29:33;;;;;;;5.55;3.65;;;;;;;;;;5094120;28;20150;-72
2023/07/09 04:31:59;;;;;;;4.60;3.85;;;;;;;;;;5076405;28;20040;-72
2023/07/09 04:34:24;;;;;;;3.58;3.28;;;;;;;;;;5094252;28;20020;-72
2023/07/09 04:36:50;;;;;;;3.55;3.28;;;;;;;;;;5094343;28;20020;-71
2023/07/09 04:39:15;;;;;;;3.75;3.45;;;;;;;;;;5094066;28;20479;-71
2023/07/09 04:41:40;;;;;;;4.90;3.70;;;;;;;;;;5094285;28;20073;-71
2023/07/09 04:44:05;;;;;;;4.93;3.45;;;;;;;;;;5094556;28;20031;-72
2023/07/09 04:46:31;;;;;;;4.50;3.80;;;;;;;;;;5094005;28;20407;-72
2023/07/09 04:48:56;;;;;;;5.43;3.67;;;;;;;;;;5094228;28;20028;-71
2023/07/09 04:51:21;;;;;;;5.38;3.58;;;;;;;;;;5094646;28;20344;-71
2023/07/09 04:53:47;;;;;;;5.43;3.53;;;;;;;;;;5094352;28;20056;-71
2023/07/09 04:56:12;;;;;;;4.35;3.83;;;;;;;;;;5093829;28;20468;-71
2023/07/09 04:58:38;;;;;;;5.22;4.10;;;;;;;;;;5072332;28;20048;-72
2023/07/09 05:01:03;;;;;;;8.40;5.35;;;;;;;;;;5073564;28;20119;-72
2023/07/09 05:03:28;;;;;;;7.55;5.40;;;;;;;;;;5073808;28;20032;-72
2023/07/09 05:05:54;;;;;;;8.38;5.32;;;;;;;;;;5073815;28;20090;-72
2023/07/09 05:08:19;;;;;;;9.35;5.25;;;;;;;;;;5073949;28;20024;-72
2023/07/09 05:10:46;;;;;;;7.32;5.32;;;;;;;;;;5072786;28;20028;-72
2023/07/09 05:13:11;;;;;;;12.02;6.22;;;;;;;;;;5073426;28;20100;-73
2023/07/09 05:15:39;;;;;;;11.43;6.88;;;;;;;;;;5055901;28;20439;-73
2023/07/09 05:18:05;;;;;;;7.65;5.00;;;;;;;;;;5073442;28;20121;-73
2023/07/09 05:20:30;;;;;;;7.57;5.57;;;;;;;;;;5072085;28;20075;-73
2023/07/09 05:22:55;;;;;;;7.00;5.35;;;;;;;;;;5073946;28;20032;-73
2023/07/09 05:25:21;;;;;;;8.80;6.00;;;;;;;;;;5072081;28;20039;-73
2023/07/09 05:27:46;;;;;;;8.48;5.72;;;;;;;;;;5073733;28;20041;-73
2023/07/09 05:30:12;;;;;;;8.18;4.90;;;;;;;;;;5077334;28;20024;-73
2023/07/09 05:32:37;;;;;;;10.15;5.50;;;;;;;;;;5077837;28;20075;-73
2023/07/09 05:35:02;;;;;;;6.15;5.55;;;;;;;;;;5077637;28;20029;-73
2023/07/09 05:37:28;;;;;;;5.95;5.13;;;;;;;;;;5077603;28;20120;-71
2023/07/09 05:39:53;;;;;;;6.95;5.40;;;;;;;;;;5077302;28;20035;-72
2023/07/09 05:42:19;;;;;;;6.93;5.18;;;;;;;;;;5077658;28;20033;-73
2023/07/09 05:44:44;;;;;;;7.45;5.20;;;;;;;;;;5077234;28;20028;-73
2023/07/09 05:47:09;;;;;;;7.13;5.57;;;;;;;;;;5075849;28;20028;-72
2023/07/09 05:49:35;;;;;;;6.93;5.43;;;;;;;;;;5076133;28;20085;-73
2023/07/09 05:52:01;;;;;;;6.20;5.03;;;;;;;;;;5077803;28;20024;-73
2023/07/09 05:54:26;;;;;;;7.97;5.07;;;;;;;;;;5076728;28;20032;-72
2023/07/09 05:56:51;;;;;;;6.72;5.95;;;;;;;;;;5080520;28;20032;-72
2023/07/09 05:59:16;;;;;;;7.10;5.90;;;;;;;;;;5078905;28;20541;-72
2023/07/09 06:01:42;;;;;;;8.32;5.50;;;;;;;;;;5079259;28;20032;-74
2023/07/09 06:04:07;;;;;;;7.63;5.25;;;;;;;;;;5095548;28;20057;-74
2023/07/09 06:06:33;;;;;;;6.60;5.22;;;;;;;;;;5095461;28;20020;-71
2023/07/09 06:08:58;;;;;;;6.25;5.45;;;;;;;;;;5095067;28;20036;-71
2023/07/09 06:11:23;;;;;;;5.65;5.05;;;;;;;;;;5095078;28;20446;-71
2023/07/09 06:13:49;;;;;;;8.02;6.18;;;;;;;;;;5095743;28;20028;-72
2023/07/09 06:16:14;;;;;;;10.30;7.55;;;;;;;;;;5095693;28;20090;-71
2023/07/09 06:18:40;;;;;;;10.07;6.88;;;;;;;;;;5077367;28;20376;-71
2023/07/09 06:21:07;;;;;;;8.40;6.03;;;;;;;;;;5095180;28;20084;-72
2023/07/09 06:23:32;;;;;;;9.55;7.00;;;;;;;;;;5077334;28;20503;-72
2023/07/09 06:25:58;;;;;;;11.15;6.72;;;;;;;;;;5077455;28;20126;-71
2023/07/09 06:28:25;;;;;;;9.70;5.68;;;;;;;;;;5095569;28;20052;-72
2023/07/09 06:30:50;;;;;;;9.65;6.00;;;;;;;;;;5095209;28;20085;-72
2023/07/09 06:33:17;;;;;;;8.52;5.75;;;;;;;;;;5095196;28;20067;-72
2023/07/09 06:36:04;;;;;;;8.93;6.05;;;;;;;;;;5076380;28;20110;-72
2023/07/09 06:38:29;;;;;;;9.73;6.18;;;;;;;;;;5077095;28;20032;-72
2023/07/09 06:40:56;;;;;;;9.80;5.30;;;;;;;;;;5096033;28;20031;-72
2023/07/09 06:43:21;;;;;;;9.75;6.05;;;;;;;;;;5095542;28;20031;-72
2023/07/09 06:45:52;;;;;;;6.90;5.55;;;;;;;;;;5077565;28;20043;-71
2023/07/09 06:48:17;;;;;;;9.90;6.03;;;;;;;;;;5096003;28;20024;-72
2023/07/09 06:50:42;;;;;;;8.70;6.10;;;;;;;;;;5077800;28;20355;-73
2023/07/09 06:53:09;;;;;;;6.80;5.50;;;;;;;;;;5095331;28;20028;-72
2023/07/09 06:55:34;;;;;;;8.90;6.00;;;;;;;;;;5094987;28;20028;-73
2023/07/09 06:58:00;;;;;;;7.72;5.70;;;;;;;;;;5094903;28;20054;-76
2023/07/09 07:00:25;;;;;;;8.35;6.22;;;;;;;;;;5076504;28;20035;-72
2023/07/09 07:02:51;;;;;;;10.25;5.20;;;;;;;;;;5094820;28;20115;-72
2023/07/09 07:05:17;;;;;;;7.65;5.15;;;;;;;;;;5095280;28;20103;-72
2023/07/09 07:07:44;;;;;;;6.85;5.13;;;;;;;;;;5077182;28;20111;-71
2023/07/09 07:10:09;;;;;;;7.35;5.82;;;;;;;;;;5095229;28;20052;-71
2023/07/09 07:12:44;;;;;;;6.82;5.53;;;;;;;;;;5094333;28;20062;-72
2023/07/09 07:15:11;;;;;;;8.00;5.45;;;;;;;;;;5094644;28;20085;-72
2023/07/09 07:17:36;;;;;;;5.18;4.65;;;;;;;;;;5095032;28;20054;-71
2023/07/09 07:20:02;;;;;;;7.13;5.28;;;;;;;;;;5094710;28;20067;-70
2023/07/09 07:22:28;;;;;;;8.43;5.57;;;;;;;;;;5075983;28;20032;-71
2023/07/09 07:24:53;;;;;;;6.20;4.95;;;;;;;;;;5094300;28;20394;-71
2023/07/09 07:27:18;;;;;;;6.10;4.68;;;;;;;;;;5076193;28;20452;-71
2023/07/09 07:29:45;;;;;;;9.63;4.85;;;;;;;;;;5094312;28;20084;-72
2023/07/09 07:32:10;;;;;;;5.40;4.90;;;;;;;;;;5094409;28;20020;-75
2023/07/09 07:34:36;;;;;;;5.53;4.95;;;;;;;;;;5094009;28;20076;-74
2023/07/09 07:37:01;;;;;;;6.03;4.72;;;;;;;;;;5074217;28;20105;-74
2023/07/09 07:39:26;;;;;;;7.60;4.82;;;;;;;;;;5075829;28;20044;-76
2023/07/09 07:41:52;;;;;;;5.40;4.28;;;;;;;;;;5094005;28;20038;-76
2023/07/09 07:44:18;;;;;;;4.93;4.47;;;;;;;;;;5093884;28;20020;-74
2023/07/09 07:46:44;;;;;;;7.43;5.53;;;;;;;;;;5094213;28;20024;-74
2023/07/09 07:49:10;;;;;;;8.77;5.07;;;;;;;;;;5093881;28;20047;-74
2023/07/09 07:51:35;;;;;;;6.97;5.00;;;;;;;;;;5094297;28;20036;-75
2023/07/09 07:54:00;;;;;;;7.13;5.18;;;;;;;;;;5094641;28;20100;-75
2023/07/09 07:56:26;;;;;;;7.28;5.68;;;;;;;;;;5094696;28;20077;-75
2023/07/09 07:58:51;;;;;;;4.85;4.28;;;;;;;;;;5094548;28;20027;-74
2023/07/09 08:13:38;;;;;;;5.25;3.45;;;;;;;;;;5111174;27;20844;-63
2023/07/09 08:16:07;;;;;;;4.00;3.15;;;;;;;;;;5090622;28;20063;-62
2023/07/09 08:18:36;;;;;;;5.22;3.22;;;;;;;;;;5090594;28;20051;-62
2023/07/09 08:21:01;;;;;;;3.35;3.13;;;;;;;;;;5090005;28;20390;-63
2023/07/09 08:23:27;;;;;;;3.15;2.88;;;;;;;;;;5090333;28;20025;-63
2023/07/09 08:26:00;;;;;;;3.60;3.15;;;;;;;;;;5090139;28;20460;-62
2023/07/09 08:28:26;;;;;;;3.53;3.30;;;;;;;;;;5090188;28;20115;-62
2023/07/09 08:30:51;;;;;;;3.53;3.22;;;;;;;;;;5089723;28;20107;-63
2023/07/09 08:33:17;;;;;;;3.00;2.80;;;;;;;;;;5089920;28;20035;-63
2023/07/09 08:35:43;;;;;;;3.20;3.00;;;;;;;;;;5072674;28;20047;-63
2023/07/09 08:38:09;;;;;;;3.28;3.00;;;;;;;;;;5090322;28;20021;-63
2023/07/09 08:40:39;;;;;;;3.13;2.92;;;;;;;;;;5090176;28;20027;-62
2023/07/09 08:43:17;;;;;;;3.60;3.30;;;;;;;;;;5066717;28;20040;-63
2023/07/09 08:45:46;;;;;;;3.17;2.90;;;;;;;;;;5069394;28;20035;-62
2023/07/09 08:48:31;;;;;;;3.60;3.30;;;;;;;;;;5069867;28;20472;-62
2023/07/09 08:51:04;;;;;;;3.75;3.40;;;;;;;;;;5070207;28;20060;-62
2023/07/09 08:53:32;;;;;;;3.50;3.30;;;;;;;;;;5069315;28;20059;-62
2023/07/09 08:55:57;;;;;;;3.78;3.47;;;;;;;;;;5069144;28;20091;-62
2023/07/09 08:58:32;;;;;;;3.55;3.35;;;;;;;;;;5069083;28;20033;-62
2023/07/09 09:01:12;;;;;;;4.03;3.05;;;;;;;;;;5069344;28;20033;-62
2023/07/09 09:03:51;;;;;;;3.17;2.97;;;;;;;;;;5069454;28;20029;-62
2023/07/09 09:06:16;;;;;;;3.50;3.30;;;;;;;;;;5068997;28;20024;-62
2023/07/09 09:08:55;;;;;;;4.18;3.60;;;;;;;;;;5068862;28;20035;-62
2023/07/09 09:11:38;;;;;;;3.67;3.38;;;;;;;;;;5068814;28;20033;-62
2023/07/09 09:14:05;;;;;;;5.22;3.47;;;;;;;;;;5040611;28;20060;-62
2023/07/09 09:16:37;;;;;;;3.85;2.88;;;;;;;;;;5055572;28;20025;-62
2023/07/09 09:19:03;;;;;;;4.70;3.45;;;;;;;;;;5055356;28;20083;-62
2023/07/09 09:21:44;;;;;;;4.20;3.33;;;;;;;;;;5055354;28;20033;-62
2023/07/09 09:24:15;;;;;;;3.35;2.97;;;;;;;;;;5055626;28;20061;-62
2023/07/09 09:26:42;;;;;;;3.30;3.00;;;;;;;;;;5055800;28;20053;-62
2023/07/09 09:29:12;;;;;;;3.17;2.83;;;;;;;;;;5055772;28;20033;-62
2023/07/09 09:31:42;;;;;;;3.83;3.33;;;;;;;;;;5055609;28;20036;-62
2023/07/09 09:34:17;;;;;;;3.30;3.10;;;;;;;;;;5055563;28;20037;-62
2023/07/09 09:36:42;;;;;;;3.22;3.03;;;;;;;;;;5037984;28;20086;-62
2023/07/09 09:39:09;;;;;;;3.17;2.92;;;;;;;;;;5049067;28;20032;-62
2023/07/09 09:41:36;;;;;;;3.72;2.92;;;;;;;;;;5055446;28;20025;-62
2023/07/09 09:44:02;;;;;;;3.15;2.95;;;;;;;;;;5053911;28;20107;-62
2023/07/09 09:46:27;;;;;;;3.30;3.10;;;;;;;;;;5054620;28;20108;-62
2023/07/09 09:48:58;;;;;;;3.50;3.30;;;;;;;;;;5055143;28;20025;-62
2023/07/09 09:51:23;;;;;;;;;;;;;;;;;;5056150;28;20025;-62
2023/07/09 09:53:51;;;;;;;3.67;3.17;;;;;;;;;;5070631;28;20270;-62
2023/07/09 09:58:58;;;;;;;3.17;2.97;;;;;;;;;;5086666;23;20350;-67
2023/07/09 10:01:29;;;;;;;5.35;3.58;;;;;;;;;;5033771;28;20033;-62
2023/07/09 10:03:55;;;;;;;3.05;2.83;;;;;;;;;;5034307;28;20542;-63
2023/07/09 10:06:38;;;;;;;3.97;3.70;;;;;;;;;;5034235;28;20030;-67
2023/07/09 10:09:16;;;;;;;3.25;3.13;;;;;;;;;;5016268;28;20464;-62
2023/07/09 10:11:45;;;;;;;4.47;3.30;;;;;;;;;;5034240;28;20040;-62
2023/07/09 10:14:22;;;;;;;3.58;3.28;;;;;;;;;;5016116;28;20421;-62
2023/07/09 10:16:51;;;;;;;3.72;3.42;;;;;;;;;;5034094;28;20063;-67
2023/07/09 10:19:17;;;;;;;2.83;2.63;;;;;;;;;;5033496;28;20133;-67
2023/07/09 10:21:57;;;;;;;3.47;2.97;;;;;;;;;;5033965;28;20087;-67
2023/07/09 10:24:38;;;;;;;3.35;3.03;;;;;;;;;;5033240;28;20036;-67
2023/07/09 10:27:03;;;;;;;3.25;3.05;;;;;;;;;;5015776;28;20072;-67
2023/07/09 10:29:47;;;;;;;3.42;3.15;;;;;;;;;;5033503;28;20477;-67
2023/07/09 10:32:31;;;;;;;3.40;2.95;;;;;;;;;;5033877;28;20121;-67
2023/07/09 10:35:03;;;;;;;3.28;3.08;;;;;;;;;;5033503;28;20040;-67
2023/07/09 10:37:34;;;;;;;2.97;2.83;;;;;;;;;;5034738;28;20064;-67
2023/07/09 10:40:02;;;;;;;3.08;2.88;;;;;;;;;;5015931;28;20048;-67
2023/07/09 10:42:34;;;;;;;3.33;3.03;;;;;;;;;;5034462;28;20022;-67
2023/07/09 10:45:07;;;;;;;3.00;2.80;;;;;;;;;;5033613;28;20030;-67
2023/07/09 10:47:34;;;;;;;3.55;3.25;;;;;;;;;;5034586;28;20092;-66
2023/07/09 10:50:01;;;;;;;4.10;3.10;;;;;;;;;;5016883;28;20033;-66
2023/07/09 10:52:29;;;;;;;3.40;2.90;;;;;;;;;;5034445;28;20509;-67
2023/07/09 10:55:00;;;;;;;3.15;2.95;;;;;;;;;;5015321;28;20041;-68
2023/07/09 10:57:30;;;;;;;3.65;3.35;;;;;;;;;;5033238;28;20132;-67
2023/07/09 10:59:56;;;;;;;3.38;3.08;;;;;;;;;;5033301;28;20045;-67
2023/07/09 11:02:25;;;;;;;3.88;2.90;;;;;;;;;;5033360;28;20046;-67
2023/07/09 11:04:54;;;;;;;3.15;2.95;;;;;;;;;;5033446;28;20025;-67
2023/07/09 11:07:25;;;;;;;3.55;3.35;;;;;;;;;;5033226;28;20473;-67
2023/07/09 11:09:54;;;;;;;3.47;3.22;;;;;;;;;;5033748;28;20026;-67
2023/07/09 11:12:27;;;;;;;3.80;3.50;;;;;;;;;;5033780;28;20045;-67
2023/07/09 11:14:59;;;;;;;3.45;3.25;;;;;;;;;;5033714;28;20074;-67
2023/07/09 11:17:26;;;;;;;3.03;2.85;;;;;;;;;;5014886;28;20138;-67
2023/07/09 11:19:55;;;;;;;3.72;3.08;;;;;;;;;;5014635;28;20044;-67
2023/07/09 11:22:21;;;;;;;4.90;3.10;;;;;;;;;;5032945;28;20078;-67
2023/07/09 11:24:48;;;;;;;3.25;3.00;;;;;;;;;;5033762;28;20057;-67
2023/07/09 11:27:31;;;;;;;3.53;3.03;;;;;;;;;;5032378;28;20032;-67
2023/07/09 11:30:00;;;;;;;3.78;3.28;;;;;;;;;;5032075;28;20029;-67
2023/07/09 11:32:27;;;;;;;3.75;3.35;;;;;;;;;;5014398;28;20393;-67
2023/07/09 11:34:52;;;;;;;4.97;2.70;;;;;;;;;;5032116;28;20044;-67
2023/07/09 11:37:24;;;;;;;3.72;3.45;;;;;;;;;;5031524;28;20021;-67
2023/07/09 11:39:49;;;;;;;3.80;3.55;;;;;;;;;;5031793;28;20069;-67
2023/07/09 11:42:24;;;;;;;3.20;3.00;;;;;;;;;;5031799;28;20045;-67
2023/07/09 11:44:51;;;;;;;3.10;2.95;;;;;;;;;;5032005;28;20076;-67
2023/07/09 11:47:28;;;;;;;4.35;3.20;;;;;;;;;;5014013;28;20057;-67
2023/07/09 11:50:05;;;;;;;3.03;2.63;;;;;;;;;;5033251;28;20040;-67
2023/07/09 11:52:33;;;;;;;3.40;3.20;;;;;;;;;;5033176;28;20033;-67
2023/07/09 11:55:02;;;;;;;3.25;3.05;;;;;;;;;;5032240;28;20018;-67
2023/07/09 11:57:30;;;;;;;2.95;2.75;;;;;;;;;;5033533;28;20038;-67
2023/07/09 11:59:58;;;;;;;3.25;3.03;;;;;;;;;;5032972;28;20462;-67
2023/07/09 12:02:30;;;;;;;3.47;3.28;;;;;;;;;;5015150;28;20053;-67
2023/07/09 12:04:55;;;;;;;3.75;3.15;;;;;;;;;;5032267;28;20065;-67
2023/07/09 12:07:24;;;;;;;3.70;3.38;;;;;;;;;;5013747;28;20080;-67
2023/07/09 12:09:50;;;;;;;3.20;2.90;;;;;;;;;;5031597;28;20106;-67
2023/07/09 12:12:17;;;;;;;3.20;3.00;;;;;;;;;;5031536;28;20049;-67
2023/07/09 12:14:42;;;;;;;3.33;3.13;;;;;;;;;;5032713;28;20104;-67
2023/07/09 12:17:08;;;;;;;3.22;2.50;;;;;;;;;;5032259;28;20125;-67
2023/07/09 12:19:34;;;;;;;2.83;2.63;;;;;;;;;;5014666;28;20385;-67
2023/07/09 12:22:00;;;;;;;3.10;2.90;;;;;;;;;;5033109;28;20033;-67
2023/07/09 12:24:26;;;;;;;2.90;2.70;;;;;;;;;;5015688;28;20076;-67
2023/07/09 12:26:53;;;;;;;4.03;3.72;;;;;;;;;;5033289;28;20033;-67
2023/07/09 12:29:18;;;;;;;3.60;3.30;;;;;;;;;;5033822;28;20526;-67
2023/07/09 12:31:44;;;;;;;2.70;2.53;;;;;;;;;;5033095;28;20112;-67
2023/07/09 12:34:12;;;;;;;3.47;3.20;;;;;;;;;;5015525;28;20044;-67
2023/07/09 12:36:38;;;;;;;2.80;2.63;;;;;;;;;;5033515;28;20534;-67
2023/07/09 12:39:03;;;;;;;3.17;2.97;;;;;;;;;;5033208;28;20060;-67
2023/07/09 12:41:34;;;;;;;3.40;3.10;;;;;;;;;;5033135;28;20417;-67
2023/07/09 12:44:00;;;;;;;3.55;3.25;;;;;;;;;;5033205;28;20037;-67
2023/07/09 12:46:25;;;;;;;3.38;3.08;;;;;;;;;;5033000;28;20034;-67
2023/07/09 12:48:50;;;;;;;4.10;3.20;;;;;;;;;;5035243;28;20036;-67
2023/07/09 12:51:20;;;;;;;2.97;2.78;;;;;;;;;;5037105;28;20033;-67
2023/07/09 12:53:46;;;;;;;3.25;3.05;;;;;;;;;;5036838;28;20428;-67
2023/07/09 12:56:13;;;;;;;3.40;3.17;;;;;;;;;;5037122;28;20044;-67
2023/07/09 12:58:40;;;;;;;3.30;3.10;;;;;;;;;;5019382;28;20477;-67
2023/07/09 13:01:07;;;;;;;2.97;2.78;;;;;;;;;;5036554;28;20088;-67
2023/07/09 13:03:33;;;;;;;4.55;3.05;;;;;;;;;;5036923;28;20104;-67
2023/07/09 13:05:58;;;;;;;3.50;3.20;;;;;;;;;;5018783;28;20109;-67
2023/07/09 13:08:25;;;;;;;3.15;2.92;;;;;;;;;;5036813;28;20021;-67
2023/07/09 13:10:51;;;;;;;3.13;2.92;;;;;;;;;;5036752;28;20101;-67
2023/07/09 13:13:18;;;;;;;3.60;3.30;;;;;;;;;;5036458;28;20392;-62
2023/07/09 13:15:51;;;;;;;3.55;3.30;;;;;;;;;;5036731;28;20459;-62
2023/07/09 13:18:17;;;;;;;3.45;3.13;;;;;;;;;;5036646;28;20380;-61
2023/07/09 13:20:44;;;;;;;3.40;3.10;;;;;;;;;;5036341;28;20120;-62
2023/07/09 13:23:11;;;;;;;3.42;2.92;;;;;;;;;;5036470;28;20025;-61
2023/07/09 13:25:38;;;;;;;3.35;3.15;;;;;;;;;;5036127;28;20036;-61
2023/07/09 13:28:03;;;;;;;3.30;3.00;;;;;;;;;;5036197;28;20469;-61
2023/07/09 13:30:31;;;;;;;3.85;3.45;;;;;;;;;;5018107;28;20033;-62
2023/07/09 13:32:58;;;;;;;3.58;3.28;;;;;;;;;;5036365;28;20155;-62
2023/07/09 13:35:25;;;;;;;3.78;3.47;;;;;;;;;;5036353;28;20038;-62
2023/07/09 13:37:51;;;;;;;3.50;3.30;;;;;;;;;;5036714;28;20114;-62
2023/07/09 13:40:18;;;;;;;3.30;2.90;;;;;;;;;;5018659;28;20053;-62
2023/07/09 13:42:43;;;;;;;3.53;3.20;;;;;;;;;;5018191;28;20048;-61
2023/07/09 13:45:22;;;;;;;3.40;3.08;;;;;;;;;;5036170;28;20021;-62
2023/07/09 13:47:50;;;;;;;3.50;3.20;;;;;;;;;;5018048;28;20049;-62
2023/07/09 13:50:16;;;;;;;3.20;3.00;;;;;;;;;;5035015;28;20033;-62
2023/07/09 13:52:41;;;;;;;3.05;2.75;;;;;;;;;;5036032;28;20120;-62
2023/07/09 13:55:15;;;;;;;4.63;3.10;;;;;;;;;;5018616;28;20069;-62
2023/07/09 13:57:40;;;;;;;3.13;2.83;;;;;;;;;;5034485;28;20063;-62
2023/07/09 14:00:08;;;;;;;3.38;3.17;;;;;;;;;;5034901;28;20124;-62
2023/07/09 14:02:34;;;;;;;3.15;2.85;;;;;;;;;;5034517;28;20030;-62
2023/07/09 14:05:00;;;;;;;3.17;2.97;;;;;;;;;;5014288;28;20033;-62
2023/07/09 14:07:31;;;;;;;3.45;3.25;;;;;;;;;;5016927;28;20041;-62
2023/07/09 14:09:57;;;;;;;3.38;3.17;;;;;;;;;;5034679;28;20030;-61
2023/07/09 14:12:22;;;;;;;3.58;3.38;;;;;;;;;;5034521;28;20094;-62
2023/07/09 14:14:49;;;;;;;3.50;3.30;;;;;;;;;;5034614;28;20033;-62
2023/07/09 14:17:14;;;;;;;3.40;3.17;;;;;;;;;;5033857;28;20037;-62
2023/07/09 14:19:41;;;;;;;3.28;3.08;;;;;;;;;;5016614;28;20040;-62
2023/07/09 14:22:19;;;;;;;3.55;3.35;;;;;;;;;;5034101;28;20108;-62
2023/07/09 14:24:45;;;;;;;4.10;3.67;;;;;;;;;;5034425;28;20044;-62
2023/07/09 14:27:11;;;;;;;3.47;3.28;;;;;;;;;;5034723;28;20017;-62
2023/07/09 14:29:36;;;;;;;4.22;3.83;;;;;;;;;;5034286;28;20358;-63
2023/07/09 14:32:02;;;;;;;3.40;3.20;;;;;;;;;;5034625;28;20116;-62
2023/07/09 14:34:29;;;;;;;3.30;3.00;;;;;;;;;;5034420;28;20020;-62
2023/07/09 14:36:55;;;;;;;4.95;3.47;;;;;;;;;;5016882;28;20038;-62
2023/07/09 14:39:21;;;;;;;3.95;3.50;;;;;;;;;;5016483;28;20112;-62
2023/07/09 14:41:47;;;;;;;3.45;3.25;;;;;;;;;;5034466;28;20116;-62
2023/07/09 14:44:28;;;;;;;3.90;3.60;;;;;;;;;;5034366;28;20087;-62
2023/07/09 14:46:55;;;;;;;3.53;3.22;;;;;;;;;;5034290;28;20021;-62
2023/07/09 14:49:22;;;;;;;5.38;3.63;;;;;;;;;;5032889;28;20017;-63
2023/07/09 14:51:49;;;;;;;4.43;3.92;;;;;;;;;;5016454;28;20029;-62
2023/07/09 14:54:21;;;;;;;3.35;3.15;;;;;;;;;;5033690;28;20029;-62
2023/07/09 14:56:47;;;;;;;3.38;3.17;;;;;;;;;;5033961;28;20061;-62
2023/07/09 14:59:12;;;;;;;4.28;3.60;;;;;;;;;;5033933;28;20105;-60
2023/07/09 15:01:38;;;;;;;4.13;3.83;;;;;;;;;;5033850;28;20076;-58
2023/07/09 15:04:19;;;;;;;3.95;3.70;;;;;;;;;;5033835;28;20025;-65
2023/07/09 15:06:44;;;;;;;3.78;3.45;;;;;;;;;;5034010;28;20017;-63